createdAt,value
2016-06-29T00:00:59.467Z,16.24
2016-06-29T00:01:59.487Z,16.24
2016-06-29T00:02:59.466Z,16.21
2016-06-29T00:03:59.458Z,16.24
2016-06-29T00:04:59.492Z,16.25
2016-06-29T00:05:59.467Z,16.26
2016-06-29T00:06:59.482Z,16.31
2016-06-29T00:07:59.486Z,16.31
2016-06-29T00:08:59.491Z,16.43
2016-06-29T00:09:59.462Z,16.47
2016-06-29T00:10:59.488Z,16.43
2016-06-29T00:11:59.472Z,16.54
2016-06-29T00:12:59.479Z,16.62
2016-06-29T00:13:59.479Z,16.58
2016-06-29T00:14:59.500Z,16.65
2016-06-29T00:15:59.485Z,16.74
2016-06-29T00:16:59.479Z,16.68
2016-06-29T00:17:59.493Z,16.76
2016-06-29T00:18:59.480Z,16.72
2016-06-29T00:19:59.489Z,16.82
2016-06-29T00:20:59.482Z,16.72
2016-06-29T00:21:59.491Z,16.72
2016-06-29T00:22:59.484Z,16.92
2016-06-29T00:23:59.506Z,16.83
2016-06-29T00:24:59.507Z,16.86
2016-06-29T00:25:59.515Z,16.86
2016-06-29T00:26:59.504Z,16.91
2016-06-29T00:27:59.513Z,16.86
2016-06-29T00:28:59.509Z,16.94
2016-06-29T00:29:59.509Z,16.94
2016-06-29T00:30:59.513Z,16.91
2016-06-29T00:31:59.507Z,16.92
2016-06-29T00:32:59.538Z,16.92
2016-06-29T00:33:59.511Z,17.02
2016-06-29T00:34:59.511Z,16.97
2016-06-29T00:35:59.524Z,17.05
2016-06-29T00:36:59.538Z,17.02
2016-06-29T00:37:59.522Z,17.14
2016-06-29T00:38:58.920Z,17.09
2016-06-29T00:39:59.536Z,17.2
2016-06-29T00:40:59.537Z,17.27
2016-06-29T00:41:59.542Z,17.28
2016-06-29T00:42:59.531Z,17.35
2016-06-29T00:43:59.529Z,17.37
2016-06-29T00:44:59.521Z,17.41
2016-06-29T00:45:59.529Z,17.44
2016-06-29T00:46:59.533Z,17.46
2016-06-29T00:47:59.555Z,17.47
2016-06-29T00:48:59.529Z,17.54
2016-06-29T00:49:59.574Z,17.66
2016-06-29T00:50:59.569Z,17.57
2016-06-29T00:51:59.547Z,17.63
2016-06-29T00:52:59.535Z,17.69
2016-06-29T00:53:59.553Z,17.73
2016-06-29T00:54:59.557Z,17.72
2016-06-29T00:55:59.553Z,17.79
2016-06-29T00:56:59.573Z,17.78
2016-06-29T00:57:59.558Z,17.87
2016-06-29T00:58:59.546Z,17.84
2016-06-29T00:59:59.587Z,17.88
2016-06-29T01:00:59.566Z,17.94
2016-06-29T01:01:59.573Z,17.9
2016-06-29T01:02:59.566Z,17.95
2016-06-29T01:03:59.574Z,17.98
2016-06-29T01:04:59.565Z,17.95
2016-06-29T01:05:59.560Z,17.95
2016-06-29T01:06:59.574Z,17.97
2016-06-29T01:07:59.591Z,17.94
2016-06-29T01:08:59.592Z,17.95
2016-06-29T01:09:59.578Z,17.93
2016-06-29T01:10:59.589Z,17.88
2016-06-29T01:11:59.597Z,17.8
2016-06-29T01:12:59.584Z,17.95
2016-06-29T01:13:59.588Z,17.95
2016-06-29T01:14:59.599Z,17.93
2016-06-29T01:15:59.575Z,17.9
2016-06-29T01:16:59.574Z,17.91
2016-06-29T01:17:59.648Z,17.94
2016-06-29T01:18:59.583Z,17.93
2016-06-29T01:19:59.593Z,18.02
2016-06-29T01:20:59.599Z,17.95
2016-06-29T01:21:59.610Z,17.97
2016-06-29T01:22:59.596Z,18.05
2016-06-29T01:23:59.618Z,17.97
2016-06-29T01:24:59.594Z,18.11
2016-06-29T01:25:59.597Z,18.09
2016-06-29T01:26:59.603Z,18.15
2016-06-29T01:27:59.615Z,18.13
2016-06-29T01:28:59.621Z,18.15
2016-06-29T01:29:59.610Z,18.16
2016-06-29T01:30:59.603Z,18.16
2016-06-29T01:31:59.619Z,18.08
2016-06-29T01:32:59.610Z,18.15
2016-06-29T01:33:59.631Z,18.15
2016-06-29T01:34:59.613Z,18.16
2016-06-29T01:35:59.612Z,18.13
2016-06-29T01:36:59.614Z,18.16
2016-06-29T01:37:59.621Z,18.16
2016-06-29T01:38:59.618Z,18.09
2016-06-29T01:39:59.614Z,18.13
2016-06-29T01:40:59.618Z,18.12
2016-06-29T01:41:59.626Z,18.15
2016-06-29T01:42:59.634Z,18.12
2016-06-29T01:43:59.630Z,18.09
2016-06-29T01:44:59.653Z,18.09
2016-06-29T01:45:59.629Z,18.13
2016-06-29T01:46:59.635Z,18.12
2016-06-29T01:47:59.632Z,18.09
2016-06-29T01:48:59.636Z,18.11
2016-06-29T01:49:59.628Z,18.06
2016-06-29T01:50:59.634Z,18.02
2016-06-29T01:51:59.637Z,18.02
2016-06-29T01:52:59.641Z,18.05
2016-06-29T01:53:59.645Z,17.97
2016-06-29T01:54:59.646Z,17.93
2016-06-29T01:55:59.673Z,17.97
2016-06-29T01:56:59.655Z,18.03
2016-06-29T01:57:59.651Z,17.94
2016-06-29T01:58:59.655Z,18
2016-06-29T01:59:59.670Z,18.02
2016-06-29T02:00:59.649Z,18.09
2016-06-29T02:01:59.647Z,18.06
2016-06-29T02:02:59.652Z,18.09
2016-06-29T02:03:59.654Z,18.08
2016-06-29T02:04:59.667Z,18.09
2016-06-29T02:05:59.659Z,18.11
2016-06-29T02:06:59.661Z,18.11
2016-06-29T02:07:59.672Z,18.11
2016-06-29T02:08:59.668Z,18.08
2016-06-29T02:09:59.664Z,18.03
2016-06-29T02:10:59.680Z,18.05
2016-06-29T02:11:59.686Z,18.05
2016-06-29T02:12:59.671Z,18
2016-06-29T02:13:59.674Z,17.98
2016-06-29T02:14:59.690Z,17.95
2016-06-29T02:15:59.672Z,17.94
2016-06-29T02:16:59.070Z,17.97
2016-06-29T02:17:59.687Z,18.02
2016-06-29T02:18:59.684Z,17.95
2016-06-29T02:19:59.697Z,17.98
2016-06-29T02:20:59.680Z,17.94
2016-06-29T02:21:59.144Z,17.87
2016-06-29T02:22:59.695Z,17.95
2016-06-29T02:23:59.697Z,17.82
2016-06-29T02:24:59.690Z,17.8
2016-06-29T02:25:59.713Z,17.82
2016-06-29T02:26:59.699Z,17.79
2016-06-29T02:27:59.701Z,17.76
2016-06-29T02:28:59.691Z,17.76
2016-06-29T02:29:59.702Z,17.84
2016-06-29T02:30:59.690Z,17.84
2016-06-29T02:31:59.707Z,17.71
2016-06-29T02:32:59.695Z,17.87
2016-06-29T02:33:59.706Z,17.75
2016-06-29T02:34:59.730Z,17.68
2016-06-29T02:35:59.714Z,17.71
2016-06-29T02:36:59.710Z,17.69
2016-06-29T02:37:59.711Z,17.73
2016-06-29T02:38:59.705Z,17.72
2016-06-29T02:39:59.715Z,17.72
2016-06-29T02:40:59.714Z,17.68
2016-06-29T02:41:59.725Z,17.75
2016-06-29T02:42:59.725Z,17.73
2016-06-29T02:43:59.732Z,17.75
2016-06-29T02:44:59.726Z,17.84
2016-06-29T02:45:59.727Z,17.8
2016-06-29T02:46:59.723Z,17.86
2016-06-29T02:47:59.728Z,17.84
2016-06-29T02:48:59.727Z,17.97
2016-06-29T02:49:59.776Z,17.97
2016-06-29T02:50:59.733Z,17.91
2016-06-29T02:51:59.799Z,17.9
2016-06-29T02:52:59.737Z,17.93
2016-06-29T02:53:59.742Z,18
2016-06-29T02:54:59.749Z,17.94
2016-06-29T02:55:59.757Z,17.94
2016-06-29T02:56:59.762Z,17.97
2016-06-29T02:57:59.745Z,18.08
2016-06-29T02:58:59.749Z,18.09
2016-06-29T02:59:59.764Z,18.12
2016-06-29T03:00:59.751Z,18.12
2016-06-29T03:01:59.773Z,18.12
2016-06-29T03:02:59.760Z,18.23
2016-06-29T03:03:59.779Z,18.24
2016-06-29T03:04:59.770Z,18.3
2016-06-29T03:05:59.760Z,18.26
2016-06-29T03:06:59.759Z,18.3
2016-06-29T03:07:59.782Z,18.34
2016-06-29T03:08:59.777Z,18.36
2016-06-29T03:09:59.775Z,18.36
2016-06-29T03:10:59.773Z,18.46
2016-06-29T03:11:59.780Z,18.43
2016-06-29T03:12:59.782Z,18.49
2016-06-29T03:13:59.774Z,18.49
2016-06-29T03:14:59.768Z,18.55
2016-06-29T03:15:59.786Z,18.51
2016-06-29T03:16:59.790Z,18.51
2016-06-29T03:17:59.903Z,18.49
2016-06-29T03:18:59.794Z,18.58
2016-06-29T03:19:59.805Z,18.49
2016-06-29T03:20:59.793Z,18.55
2016-06-29T03:21:59.821Z,18.55
2016-06-29T03:22:59.794Z,18.6
2016-06-29T03:23:59.798Z,18.51
2016-06-29T03:24:59.807Z,18.57
2016-06-29T03:25:59.782Z,18.64
2016-06-29T03:26:59.795Z,18.57
2016-06-29T03:27:59.814Z,18.48
2016-06-29T03:28:59.818Z,18.58
2016-06-29T03:29:59.805Z,18.55
2016-06-29T03:30:59.794Z,18.53
2016-06-29T03:31:59.811Z,18.51
2016-06-29T03:32:59.813Z,18.52
2016-06-29T03:33:59.817Z,18.46
2016-06-29T03:34:59.834Z,18.41
2016-06-29T03:36:00.040Z,18.45
2016-06-29T03:36:59.809Z,18.34
2016-06-29T03:37:59.815Z,18.37
2016-06-29T03:38:59.819Z,18.46
2016-06-29T03:39:59.825Z,18.45
2016-06-29T03:40:59.816Z,18.48
2016-06-29T03:41:59.818Z,18.52
2016-06-29T03:42:59.808Z,18.57
2016-06-29T03:43:59.827Z,18.52
2016-06-29T03:44:59.844Z,18.57
2016-06-29T03:45:59.840Z,18.6
2016-06-29T03:46:59.854Z,18.61
2016-06-29T03:47:59.840Z,18.67
2016-06-29T03:48:59.871Z,18.63
2016-06-29T03:49:59.847Z,18.7
2016-06-29T03:50:59.832Z,18.7
2016-06-29T03:51:59.839Z,18.64
2016-06-29T03:52:59.835Z,18.66
2016-06-29T03:53:59.856Z,18.67
2016-06-29T03:54:59.845Z,18.7
2016-06-29T03:55:59.948Z,18.76
2016-06-29T03:56:59.845Z,18.73
2016-06-29T03:57:59.864Z,18.67
2016-06-29T03:58:59.850Z,18.7
2016-06-29T03:59:59.859Z,18.68
2016-06-29T04:00:59.268Z,18.66
2016-06-29T04:01:59.867Z,18.82
2016-06-29T04:02:59.860Z,18.76
2016-06-29T04:03:59.864Z,18.79
2016-06-29T04:04:59.869Z,18.82
2016-06-29T04:05:59.882Z,18.79
2016-06-29T04:06:59.855Z,18.85
2016-06-29T04:07:59.871Z,18.82
2016-06-29T04:08:59.864Z,18.81
2016-06-29T04:09:59.866Z,18.82
2016-06-29T04:10:59.864Z,18.86
2016-06-29T04:11:59.897Z,18.91
2016-06-29T04:12:59.889Z,18.94
2016-06-29T04:13:59.859Z,18.96
2016-06-29T04:14:59.886Z,18.92
2016-06-29T04:15:59.875Z,18.97
2016-06-29T04:16:59.881Z,18.97
2016-06-29T04:17:59.900Z,19.01
2016-06-29T04:18:59.882Z,19.05
2016-06-29T04:19:59.890Z,19.05
2016-06-29T04:20:59.894Z,18.98
2016-06-29T04:21:59.895Z,19.01
2016-06-29T04:22:59.908Z,18.98
2016-06-29T04:23:59.887Z,19.07
2016-06-29T04:24:59.902Z,18.96
2016-06-29T04:25:59.892Z,19.01
2016-06-29T04:26:59.913Z,19.01
2016-06-29T04:27:59.915Z,19.07
2016-06-29T04:28:59.926Z,19.04
2016-06-29T04:29:59.913Z,19.04
2016-06-29T04:30:59.913Z,18.97
2016-06-29T04:31:59.900Z,19
2016-06-29T04:32:59.919Z,19.05
2016-06-29T04:33:59.901Z,19.05
2016-06-29T04:34:59.910Z,19.05
2016-06-29T04:35:59.902Z,19.01
2016-06-29T04:36:59.921Z,19
2016-06-29T04:37:59.922Z,19
2016-06-29T04:38:59.951Z,19.05
2016-06-29T04:39:59.947Z,19.01
2016-06-29T04:40:59.919Z,18.92
2016-06-29T04:41:59.940Z,19.04
2016-06-29T04:42:59.928Z,19.05
2016-06-29T04:43:59.934Z,18.97
2016-06-29T04:44:59.946Z,18.97
2016-06-29T04:45:59.926Z,19.01
2016-06-29T04:46:59.932Z,19.01
2016-06-29T04:47:59.937Z,19.16
2016-06-29T04:48:59.926Z,19.19
2016-06-29T04:49:59.933Z,19.2
2016-06-29T04:50:59.930Z,19.19
2016-06-29T04:51:59.954Z,19.24
2016-06-29T04:52:59.966Z,19.26
2016-06-29T04:53:59.945Z,19.23
2016-06-29T04:54:59.956Z,19.24
2016-06-29T04:55:59.949Z,19.24
2016-06-29T04:56:59.939Z,19.22
2016-06-29T04:57:59.945Z,19.3
2016-06-29T04:58:59.961Z,19.27
2016-06-29T04:59:59.961Z,19.27
2016-06-29T05:00:59.952Z,19.27
2016-06-29T05:01:59.962Z,19.39
2016-06-29T05:02:59.973Z,19.37
2016-06-29T05:03:59.958Z,19.48
2016-06-29T05:05:00.204Z,19.41
2016-06-29T05:05:59.959Z,19.48
2016-06-29T05:06:59.986Z,19.44
2016-06-29T05:07:59.971Z,19.42
2016-06-29T05:08:59.986Z,19.42
2016-06-29T05:09:59.996Z,19.47
2016-06-29T05:11:00.017Z,19.48
2016-06-29T05:11:59.983Z,19.49
2016-06-29T05:13:00.006Z,19.41
2016-06-29T05:13:59.974Z,19.48
2016-06-29T05:14:59.984Z,19.49
2016-06-29T05:15:59.985Z,19.47
2016-06-29T05:16:59.981Z,19.55
2016-06-29T05:18:00.034Z,19.47
2016-06-29T05:18:59.996Z,19.41
2016-06-29T05:19:59.989Z,19.48
2016-06-29T05:20:59.991Z,19.47
2016-06-29T05:22:00.007Z,19.56
2016-06-29T05:23:00.003Z,19.6
2016-06-29T05:24:00.015Z,19.7
2016-06-29T05:25:00.005Z,19.74
2016-06-29T05:26:00.005Z,19.7
2016-06-29T05:27:00.008Z,19.82
2016-06-29T05:28:00.007Z,19.78
2016-06-29T05:29:00.016Z,19.74
2016-06-29T05:30:00.011Z,19.79
2016-06-29T05:31:00.028Z,19.78
2016-06-29T05:32:00.011Z,19.84
2016-06-29T05:33:00.034Z,19.78
2016-06-29T05:34:00.029Z,19.79
2016-06-29T05:35:00.035Z,19.81
2016-06-29T05:36:00.035Z,19.75
2016-06-29T05:37:00.041Z,19.82
2016-06-29T05:38:00.047Z,19.87
2016-06-29T05:39:00.104Z,19.77
2016-06-29T05:40:00.030Z,19.84
2016-06-29T05:41:00.098Z,19.87
2016-06-29T05:42:00.057Z,19.94
2016-06-29T05:43:00.037Z,19.87
2016-06-29T05:44:00.040Z,19.81
2016-06-29T05:45:00.054Z,19.87
2016-06-29T05:46:00.037Z,19.82
2016-06-29T05:47:00.046Z,19.82
2016-06-29T05:48:00.038Z,19.87
2016-06-29T05:49:00.051Z,19.81
2016-06-29T05:50:00.047Z,19.84
2016-06-29T05:51:00.051Z,19.82
2016-06-29T05:52:00.054Z,19.81
2016-06-29T05:53:00.063Z,19.89
2016-06-29T05:54:00.061Z,19.92
2016-06-29T05:55:00.063Z,19.9
2016-06-29T05:56:00.060Z,19.9
2016-06-29T05:57:00.090Z,19.87
2016-06-29T05:58:00.071Z,19.89
2016-06-29T05:59:00.087Z,19.9
2016-06-29T06:00:00.103Z,19.9
2016-06-29T06:01:00.064Z,19.79
2016-06-29T06:02:00.081Z,19.81
2016-06-29T06:03:00.118Z,19.87
2016-06-29T06:04:00.077Z,19.81
2016-06-29T06:05:00.105Z,19.93
2016-06-29T06:06:00.091Z,19.92
2016-06-29T06:07:00.071Z,19.81
2016-06-29T06:08:00.086Z,19.96
2016-06-29T06:09:00.117Z,19.89
2016-06-29T06:10:00.098Z,19.9
2016-06-29T06:11:00.110Z,20
2016-06-29T06:12:00.103Z,20.02
2016-06-29T06:13:00.101Z,19.93
2016-06-29T06:14:00.123Z,19.99
2016-06-29T06:15:00.087Z,19.94
2016-06-29T06:16:00.111Z,19.96
2016-06-29T06:17:00.094Z,19.99
2016-06-29T06:18:00.158Z,20.07
2016-06-29T06:19:00.112Z,20.15
2016-06-29T06:20:00.115Z,20.12
2016-06-29T06:21:00.124Z,20.14
2016-06-29T06:22:00.144Z,20.12
2016-06-29T06:23:00.117Z,20.22
2016-06-29T06:24:00.127Z,20.34
2016-06-29T06:25:00.112Z,20.34
2016-06-29T06:26:00.137Z,20.44
2016-06-29T06:27:00.128Z,20.39
2016-06-29T06:28:00.128Z,20.44
2016-06-29T06:29:00.134Z,20.44
2016-06-29T06:30:00.127Z,20.48
2016-06-29T06:31:00.135Z,20.49
2016-06-29T06:32:00.124Z,20.52
2016-06-29T06:33:00.145Z,20.55
2016-06-29T06:34:00.148Z,20.55
2016-06-29T06:35:00.131Z,20.67
2016-06-29T06:36:00.153Z,20.7
2016-06-29T06:37:00.140Z,20.74
2016-06-29T06:38:00.153Z,20.74
2016-06-29T06:39:00.159Z,20.83
2016-06-29T06:40:00.151Z,20.92
2016-06-29T06:41:00.153Z,20.9
2016-06-29T06:42:00.158Z,21.04
2016-06-29T06:43:00.156Z,21.07
2016-06-29T06:44:00.165Z,20.98
2016-06-29T06:45:00.154Z,21
2016-06-29T06:46:00.163Z,21
2016-06-29T06:47:00.159Z,21.04
2016-06-29T06:48:00.175Z,21.1
2016-06-29T06:49:00.175Z,21.11
2016-06-29T06:50:00.183Z,21.04
2016-06-29T06:51:00.175Z,21.1
2016-06-29T06:52:00.207Z,21.01
2016-06-29T06:53:00.185Z,21.04
2016-06-29T06:54:00.186Z,21.01
2016-06-29T06:55:00.182Z,21.04
2016-06-29T06:56:00.193Z,21.01
2016-06-29T06:57:00.186Z,21.2
2016-06-29T06:58:00.186Z,21.15
2016-06-29T06:59:00.193Z,21.19
2016-06-29T07:00:00.216Z,21.23
2016-06-29T07:01:00.237Z,21.25
2016-06-29T07:02:00.213Z,21.19
2016-06-29T07:03:00.203Z,21.11
2016-06-29T07:04:00.210Z,21.19
2016-06-29T07:05:00.205Z,21.19
2016-06-29T07:06:00.197Z,21.15
2016-06-29T07:07:00.235Z,21.15
2016-06-29T07:08:00.227Z,21.13
2016-06-29T07:09:00.221Z,21.14
2016-06-29T07:10:00.650Z,21.13
2016-06-29T07:11:00.242Z,21.2
2016-06-29T07:12:00.247Z,21.29
2016-06-29T07:13:00.222Z,21.37
2016-06-29T07:14:00.223Z,21.43
2016-06-29T07:15:00.243Z,21.41
2016-06-29T07:16:00.248Z,21.44
2016-06-29T07:17:00.243Z,21.6
2016-06-29T07:18:00.225Z,21.65
2016-06-29T07:19:00.226Z,21.53
2016-06-29T07:20:00.236Z,21.53
2016-06-29T07:21:00.467Z,21.53
2016-06-29T07:22:00.257Z,21.5
2016-06-29T07:23:00.235Z,21.54
2016-06-29T07:23:59.652Z,21.4
2016-06-29T07:25:00.250Z,21.41
2016-06-29T07:26:00.257Z,21.28
2016-06-29T07:27:00.250Z,21.29
2016-06-29T07:28:00.280Z,21.28
2016-06-29T07:29:00.279Z,21.22
2016-06-29T07:30:00.274Z,21.32
2016-06-29T07:31:00.275Z,21.37
2016-06-29T07:32:00.317Z,21.4
2016-06-29T07:33:00.279Z,21.4
2016-06-29T07:34:00.276Z,21.4
2016-06-29T07:35:00.283Z,21.32
2016-06-29T07:36:00.300Z,21.32
2016-06-29T07:37:00.286Z,21.26
2016-06-29T07:38:00.280Z,21.29
2016-06-29T07:39:00.542Z,21.3
2016-06-29T07:40:00.297Z,21.25
2016-06-29T07:41:00.365Z,21.33
2016-06-29T07:42:00.302Z,21.35
2016-06-29T07:43:00.386Z,21.35
2016-06-29T07:44:00.298Z,21.53
2016-06-29T07:44:59.699Z,21.58
2016-06-29T07:46:00.305Z,21.58
2016-06-29T07:47:00.309Z,21.59
2016-06-29T07:48:00.311Z,21.58
2016-06-29T07:49:00.315Z,21.58
2016-06-29T07:50:00.326Z,21.6
2016-06-29T07:51:00.315Z,21.63
2016-06-29T07:52:00.338Z,21.7
2016-06-29T07:53:00.321Z,21.77
2016-06-29T07:54:00.318Z,21.89
2016-06-29T07:55:00.315Z,21.91
2016-06-29T07:56:00.339Z,21.92
2016-06-29T07:57:00.341Z,22.01
2016-06-29T07:58:00.339Z,22.06
2016-06-29T07:59:00.351Z,22.06
2016-06-29T08:00:00.352Z,22.15
2016-06-29T08:01:00.346Z,22.31
2016-06-29T08:02:00.353Z,22.46
2016-06-29T08:03:00.351Z,22.31
2016-06-29T08:04:00.369Z,22.33
2016-06-29T08:05:00.363Z,22.3
2016-06-29T08:06:00.368Z,22.25
2016-06-29T08:07:00.373Z,22.36
2016-06-29T08:08:00.372Z,22.3
2016-06-29T08:09:00.357Z,22.43
2016-06-29T08:10:00.372Z,22.49
2016-06-29T08:11:00.369Z,22.63
2016-06-29T08:12:00.375Z,22.78
2016-06-29T08:13:00.381Z,23.01
2016-06-29T08:14:00.367Z,23.08
2016-06-29T08:15:00.383Z,23.29
2016-06-29T08:16:00.376Z,23.55
2016-06-29T08:17:00.386Z,23.79
2016-06-29T08:18:00.452Z,24.29
2016-06-29T08:19:00.399Z,24.84
2016-06-29T08:20:00.389Z,25.33
2016-06-29T08:20:59.794Z,25.81
2016-06-29T08:22:00.403Z,26.16
2016-06-29T08:23:00.405Z,26.56
2016-06-29T08:24:00.414Z,26.91
2016-06-29T08:24:59.813Z,27.28
2016-06-29T08:26:00.406Z,27.93
2016-06-29T08:27:00.439Z,28.4
2016-06-29T08:28:00.432Z,28.92
2016-06-29T08:29:00.443Z,29.25
2016-06-29T08:30:00.437Z,29.53
2016-06-29T08:31:00.432Z,29.68
2016-06-29T08:32:00.430Z,29.94
2016-06-29T08:33:00.437Z,29.9
2016-06-29T08:34:00.447Z,30.38
2016-06-29T08:35:00.442Z,31.36
2016-06-29T08:36:00.462Z,32.51
2016-06-29T08:37:00.441Z,33.51
2016-06-29T08:38:00.462Z,34.25
2016-06-29T08:39:00.487Z,34.73
2016-06-29T08:40:00.470Z,35.07
2016-06-29T08:41:00.523Z,35.07
2016-06-29T08:42:00.475Z,34.91
2016-06-29T08:43:00.499Z,34.85
2016-06-29T08:44:00.491Z,34.71
2016-06-29T08:45:00.495Z,34.51
2016-06-29T08:46:00.496Z,34.94
2016-06-29T08:47:00.544Z,35.37
2016-06-29T08:48:00.563Z,35.86
2016-06-29T08:49:00.499Z,36.01
2016-06-29T08:50:00.513Z,35.98
2016-06-29T08:51:00.513Z,35.69
2016-06-29T08:52:00.532Z,35.45
2016-06-29T08:53:00.532Z,35.13
2016-06-29T08:54:00.527Z,34.82
2016-06-29T08:55:00.526Z,34.53
2016-06-29T08:56:00.543Z,34.55
2016-06-29T08:57:00.553Z,34.76
2016-06-29T08:58:00.551Z,35.13
2016-06-29T08:59:00.551Z,35.31
2016-06-29T09:00:00.550Z,35.44
2016-06-29T09:01:00.590Z,35.47
2016-06-29T09:02:00.566Z,35.39
2016-06-29T09:03:00.584Z,35.26
2016-06-29T09:04:00.574Z,35.16
2016-06-29T09:05:00.575Z,34.81
2016-06-29T09:06:00.587Z,34.73
2016-06-29T09:07:00.603Z,35
2016-06-29T09:08:00.591Z,35.2
2016-06-29T09:09:00.640Z,35.53
2016-06-29T09:10:00.614Z,35.96
2016-06-29T09:11:00.623Z,36.05
2016-06-29T09:12:00.639Z,36.17
2016-06-29T09:13:00.614Z,36.18
2016-06-29T09:14:00.640Z,36.31
2016-06-29T09:15:00.631Z,36.31
2016-06-29T09:16:00.651Z,36.39
2016-06-29T09:17:00.663Z,36.48
2016-06-29T09:18:00.699Z,36.6
2016-06-29T09:19:00.651Z,36.91
2016-06-29T09:20:00.670Z,37.01
2016-06-29T09:21:00.665Z,37.15
2016-06-29T09:22:00.672Z,37.36
2016-06-29T09:23:00.676Z,37.29
2016-06-29T09:24:00.693Z,37.5
2016-06-29T09:25:00.685Z,37.73
2016-06-29T09:26:00.694Z,37.97
2016-06-29T09:27:00.691Z,38.05
2016-06-29T09:28:00.726Z,37.95
2016-06-29T09:29:00.705Z,37.78
2016-06-29T09:30:00.713Z,37.79
2016-06-29T09:31:00.715Z,38.02
2016-06-29T09:32:00.719Z,38.29
2016-06-29T09:33:00.735Z,38.46
2016-06-29T09:34:00.750Z,38.48
2016-06-29T09:35:00.744Z,38.28
2016-06-29T09:36:00.751Z,37.97
2016-06-29T09:37:00.758Z,37.48
2016-06-29T09:38:00.760Z,37.06
2016-06-29T09:39:00.802Z,36.48
2016-06-29T09:40:00.850Z,36.05
2016-06-29T09:41:00.784Z,35.71
2016-06-29T09:42:00.797Z,35.35
2016-06-29T09:43:00.784Z,35.16
2016-06-29T09:44:00.806Z,35.08
2016-06-29T09:45:00.801Z,34.85
2016-06-29T09:46:00.809Z,34.78
2016-06-29T09:47:00.818Z,34.65
2016-06-29T09:48:00.805Z,34.7
2016-06-29T09:49:00.821Z,34.88
2016-06-29T09:50:00.833Z,34.88
2016-06-29T09:51:00.839Z,34.93
2016-06-29T09:52:00.829Z,34.88
2016-06-29T09:53:00.895Z,34.79
2016-06-29T09:54:00.838Z,34.86
2016-06-29T09:55:00.866Z,34.79
2016-06-29T09:56:00.864Z,34.69
2016-06-29T09:57:00.845Z,34.59
2016-06-29T09:58:00.266Z,34.41
2016-06-29T09:59:00.902Z,34.28
2016-06-29T10:00:00.890Z,34.04
2016-06-29T10:01:00.907Z,33.66
2016-06-29T10:02:00.896Z,33.23
2016-06-29T10:03:00.902Z,32.94
2016-06-29T10:04:00.904Z,32.61
2016-06-29T10:05:00.895Z,32.34
2016-06-29T10:06:00.903Z,32.26
2016-06-29T10:07:00.303Z,32.08
2016-06-29T10:08:00.922Z,31.85
2016-06-29T10:09:00.938Z,31.72
2016-06-29T10:10:00.942Z,31.51
2016-06-29T10:11:00.934Z,31.22
2016-06-29T10:12:00.931Z,30.96
2016-06-29T10:13:00.944Z,30.8
2016-06-29T10:14:00.950Z,30.58
2016-06-29T10:15:00.961Z,30.32
2016-06-29T10:16:23.554Z,30.1
2016-06-29T10:17:00.965Z,29.96
2016-06-29T10:18:00.978Z,29.83
2016-06-29T10:19:00.982Z,29.83
2016-06-29T10:20:01.014Z,29.74
2016-06-29T10:21:00.992Z,29.74
2016-06-29T10:22:00.991Z,29.58
2016-06-29T10:23:01.007Z,29.5
2016-06-29T10:24:01.003Z,29.39
2016-06-29T10:25:00.996Z,29.2
2016-06-29T10:26:00.993Z,29.1
2016-06-29T10:27:01.010Z,28.94
2016-06-29T10:28:01.009Z,28.87
2016-06-29T10:29:01.027Z,28.78
2016-06-29T10:30:01.028Z,28.74
2016-06-29T10:31:01.035Z,28.53
2016-06-29T10:32:01.030Z,28.53
2016-06-29T10:33:01.048Z,28.38
2016-06-29T10:34:01.063Z,28.33
2016-06-29T10:35:01.086Z,28.25
2016-06-29T10:36:01.057Z,28.34
2016-06-29T10:37:01.058Z,28.27
2016-06-29T10:38:01.075Z,28.16
2016-06-29T10:39:01.072Z,28.1
2016-06-29T10:40:01.080Z,27.98
2016-06-29T10:41:01.083Z,28.01
2016-06-29T10:42:01.088Z,28.04
2016-06-29T10:43:01.094Z,28.06
2016-06-29T10:44:01.101Z,28.01
2016-06-29T10:45:01.147Z,28.06
2016-06-29T10:46:01.103Z,28.06
2016-06-29T10:47:01.100Z,28.09
2016-06-29T10:48:01.106Z,28.19
2016-06-29T10:49:01.127Z,28.12
2016-06-29T10:50:01.119Z,28.06
2016-06-29T10:51:01.120Z,28.18
2016-06-29T10:52:01.151Z,28.23
2016-06-29T10:53:01.132Z,28.28
2016-06-29T10:54:01.137Z,28.27
2016-06-29T10:55:01.144Z,28.1
2016-06-29T10:56:01.169Z,28.34
2016-06-29T10:57:01.168Z,28.33
2016-06-29T10:58:01.180Z,28.27
2016-06-29T10:59:01.234Z,28.37
2016-06-29T11:00:01.195Z,28.5
2016-06-29T11:01:01.197Z,28.53
2016-06-29T11:02:01.187Z,28.56
2016-06-29T11:03:01.267Z,28.56
2016-06-29T11:04:01.177Z,28.57
2016-06-29T11:05:01.191Z,28.57
2016-06-29T11:06:01.187Z,28.59
2016-06-29T11:07:01.213Z,28.6
2016-06-29T11:08:01.195Z,28.57
2016-06-29T11:09:01.204Z,28.62
2016-06-29T11:10:01.209Z,28.57
2016-06-29T11:11:01.221Z,28.59
2016-06-29T11:12:01.227Z,28.71
2016-06-29T11:13:01.222Z,28.56
2016-06-29T11:14:01.242Z,28.62
2016-06-29T11:15:01.239Z,28.56
2016-06-29T11:16:01.231Z,28.53
2016-06-29T11:17:00.654Z,28.45
2016-06-29T11:18:01.245Z,28.45
2016-06-29T11:19:01.256Z,28.46
2016-06-29T11:20:01.247Z,28.35
2016-06-29T11:21:01.271Z,28.43
2016-06-29T11:22:01.279Z,28.45
2016-06-29T11:23:01.293Z,28.38
2016-06-29T11:24:01.289Z,28.38
2016-06-29T11:25:01.272Z,28.28
2016-06-29T11:26:01.279Z,28.38
2016-06-29T11:27:01.281Z,28.3
2016-06-29T11:28:01.282Z,28.13
2016-06-29T11:29:01.285Z,28.06
2016-06-29T11:30:01.303Z,27.93
2016-06-29T11:31:01.306Z,27.78
2016-06-29T11:32:01.313Z,27.68
2016-06-29T11:33:01.311Z,27.63
2016-06-29T11:34:01.361Z,27.81
2016-06-29T11:35:01.314Z,27.83
2016-06-29T11:36:01.331Z,27.9
2016-06-29T11:37:01.319Z,27.97
2016-06-29T11:38:01.337Z,28.03
2016-06-29T11:39:01.349Z,28.2
2016-06-29T11:40:01.342Z,28.25
2016-06-29T11:41:01.354Z,28.33
2016-06-29T11:42:01.343Z,28.27
2016-06-29T11:43:01.351Z,28.28
2016-06-29T11:44:01.373Z,28.15
2016-06-29T11:45:01.376Z,28.23
2016-06-29T11:46:01.387Z,28.18
2016-06-29T11:47:01.371Z,28.38
2016-06-29T11:48:01.388Z,28.4
2016-06-29T11:49:01.384Z,28.43
2016-06-29T11:50:01.409Z,28.43
2016-06-29T11:51:00.795Z,28.4
2016-06-29T11:52:01.431Z,28.37
2016-06-29T11:53:01.423Z,28.34
2016-06-29T11:54:01.407Z,28.3
2016-06-29T11:55:01.410Z,28.31
2016-06-29T11:56:01.407Z,28.18
2016-06-29T11:57:01.418Z,28.12
2016-06-29T11:58:01.422Z,28.13
2016-06-29T11:59:01.422Z,28.03
2016-06-29T12:00:01.459Z,28.03
2016-06-29T12:01:01.430Z,28
2016-06-29T12:02:01.433Z,27.95
2016-06-29T12:03:01.428Z,28.03
2016-06-29T12:04:01.450Z,27.95
2016-06-29T12:05:01.452Z,28.01
2016-06-29T12:06:01.484Z,27.93
2016-06-29T12:07:01.466Z,27.93
2016-06-29T12:08:01.466Z,27.82
2016-06-29T12:09:01.459Z,27.76
2016-06-29T12:10:01.482Z,27.78
2016-06-29T12:11:01.467Z,27.81
2016-06-29T12:12:01.477Z,27.85
2016-06-29T12:13:01.480Z,27.88
2016-06-29T12:14:01.486Z,27.82
2016-06-29T12:15:01.477Z,27.85
2016-06-29T12:16:01.477Z,27.83
2016-06-29T12:17:01.507Z,27.9
2016-06-29T12:18:01.491Z,27.83
2016-06-29T12:19:01.493Z,27.82
2016-06-29T12:20:01.494Z,27.85
2016-06-29T12:21:01.537Z,27.93
2016-06-29T12:22:01.528Z,27.88
2016-06-29T12:23:01.514Z,27.86
2016-06-29T12:24:01.518Z,27.9
2016-06-29T12:25:01.543Z,27.83
2016-06-29T12:26:01.542Z,27.9
2016-06-29T12:27:01.546Z,27.88
2016-06-29T12:28:01.570Z,27.83
2016-06-29T12:29:01.543Z,27.86
2016-06-29T12:30:01.557Z,27.82
2016-06-29T12:31:01.580Z,27.93
2016-06-29T12:32:01.559Z,27.83
2016-06-29T12:33:01.562Z,27.86
2016-06-29T12:34:01.562Z,27.78
2016-06-29T12:35:01.612Z,27.64
2016-06-29T12:36:01.568Z,27.55
2016-06-29T12:37:01.580Z,27.5
2016-06-29T12:38:01.591Z,27.53
2016-06-29T12:39:01.571Z,27.57
2016-06-29T12:40:01.583Z,27.5
2016-06-29T12:41:01.612Z,27.45
2016-06-29T12:42:01.580Z,27.57
2016-06-29T12:43:01.591Z,27.5
2016-06-29T12:44:01.593Z,27.57
2016-06-29T12:45:01.598Z,27.55
2016-06-29T12:46:01.621Z,27.58
2016-06-29T12:47:01.624Z,27.64
2016-06-29T12:48:01.677Z,27.64
2016-06-29T12:49:01.635Z,27.75
2016-06-29T12:50:01.628Z,27.78
2016-06-29T12:51:01.653Z,27.76
2016-06-29T12:52:01.649Z,27.76
2016-06-29T12:53:01.655Z,27.64
2016-06-29T12:54:01.638Z,27.76
2016-06-29T12:55:01.641Z,27.73
2016-06-29T12:56:01.659Z,27.75